sensor_id;sensor_type;location;lat;lon;timestamp;P1;durP1;ratioP1;P2;durP2;ratioP2
12445;SDS011;6287;50.984;7.022;2023-01-01T00:01:40;21.33;;;14.50;;
12445;SDS011;6287;50.984;7.022;2023-01-01T00:04:08;24.97;;;13.97;;
12445;SDS011;6287;50.984;7.022;2023-01-01T00:06:36;19.23;;;12.03;;
12445;SDS011;6287;50.984;7.022;2023-01-01T00:09:04;15.13;;;9.97;;
12445;SDS011;6287;50.984;7.022;2023-01-01T00:11:48;17.97;;;9.43;;
12445;SDS011;6287;50.984;7.022;2023-01-01T00:14:14;18.37;;;10.30;;
12445;SDS011;6287;50.984;7.022;2023-01-01T00:16:39;13.27;;;9.33;;
12445;SDS011;6287;50.984;7.022;2023-01-01T00:19:05;14.20;;;9.00;;
12445;SDS011;6287;50.984;7.022;2023-01-01T00:21:33;15.37;;;8.27;;
12445;SDS011;6287;50.984;7.022;2023-01-01T00:24:01;9.47;;;7.23;;
12445;SDS011;6287;50.984;7.022;2023-01-01T00:26:27;9.30;;;5.80;;
12445;SDS011;6287;50.984;7.022;2023-01-01T00:28:53;8.77;;;5.10;;
12445;SDS011;6287;50.984;7.022;2023-01-01T00:31:19;9.83;;;6.07;;
12445;SDS011;6287;50.984;7.022;2023-01-01T00:33:52;7.40;;;4.43;;
12445;SDS011;6287;50.984;7.022;2023-01-01T00:36:22;6.77;;;3.63;;
12445;SDS011;6287;50.984;7.022;2023-01-01T00:38:49;4.90;;;3.20;;
12445;SDS011;6287;50.984;7.022;2023-01-01T00:41:15;7.33;;;3.73;;
12445;SDS011;6287;50.984;7.022;2023-01-01T00:43:41;6.03;;;3.83;;
12445;SDS011;6287;50.984;7.022;2023-01-01T00:46:07;4.37;;;3.13;;
12445;SDS011;6287;50.984;7.022;2023-01-01T00:48:36;6.50;;;3.03;;
12445;SDS011;6287;50.984;7.022;2023-01-01T00:51:01;3.97;;;2.47;;
12445;SDS011;6287;50.984;7.022;2023-01-01T00:53:27;5.00;;;3.20;;
12445;SDS011;6287;50.984;7.022;2023-01-01T00:55:53;2.60;;;2.30;;
12445;SDS011;6287;50.984;7.022;2023-01-01T00:58:20;6.43;;;3.07;;
12445;SDS011;6287;50.984;7.022;2023-01-01T01:00:49;6.13;;;2.43;;
12445;SDS011;6287;50.984;7.022;2023-01-01T01:03:16;4.17;;;2.43;;
12445;SDS011;6287;50.984;7.022;2023-01-01T01:05:57;2.83;;;2.20;;
12445;SDS011;6287;50.984;7.022;2023-01-01T01:08:29;3.03;;;2.50;;
12445;SDS011;6287;50.984;7.022;2023-01-01T01:13:34;4.27;;;2.67;;
12445;SDS011;6287;50.984;7.022;2023-01-01T01:16:01;3.97;;;2.63;;
12445;SDS011;6287;50.984;7.022;2023-01-01T01:18:39;6.77;;;2.53;;
12445;SDS011;6287;50.984;7.022;2023-01-01T01:21:08;3.83;;;2.23;;
12445;SDS011;6287;50.984;7.022;2023-01-01T01:23:34;4.43;;;2.00;;
12445;SDS011;6287;50.984;7.022;2023-01-01T01:26:13;2.87;;;1.90;;
12445;SDS011;6287;50.984;7.022;2023-01-01T01:28:48;2.23;;;1.57;;
12445;SDS011;6287;50.984;7.022;2023-01-01T01:31:21;1.60;;;1.47;;
12445;SDS011;6287;50.984;7.022;2023-01-01T01:33:51;1.50;;;1.40;;
12445;SDS011;6287;50.984;7.022;2023-01-01T01:36:17;5.73;;;2.40;;
12445;SDS011;6287;50.984;7.022;2023-01-01T01:38:45;6.63;;;4.37;;
12445;SDS011;6287;50.984;7.022;2023-01-01T01:41:14;26.33;;;17.17;;
12445;SDS011;6287;50.984;7.022;2023-01-01T01:46:09;20.83;;;15.37;;
12445;SDS011;6287;50.984;7.022;2023-01-01T01:48:42;14.03;;;9.70;;
12445;SDS011;6287;50.984;7.022;2023-01-01T01:51:13;10.40;;;5.90;;
12445;SDS011;6287;50.984;7.022;2023-01-01T01:53:45;6.30;;;3.47;;
12445;SDS011;6287;50.984;7.022;2023-01-01T01:56:15;3.37;;;2.53;;
12445;SDS011;6287;50.984;7.022;2023-01-01T01:58:45;2.13;;;1.63;;
12445;SDS011;6287;50.984;7.022;2023-01-01T02:01:13;1.40;;;1.30;;
12445;SDS011;6287;50.984;7.022;2023-01-01T02:03:49;1.30;;;1.03;;
12445;SDS011;6287;50.984;7.022;2023-01-01T02:06:19;1.10;;;1.00;;
12445;SDS011;6287;50.984;7.022;2023-01-01T02:08:45;1.87;;;1.27;;
12445;SDS011;6287;50.984;7.022;2023-01-01T02:11:14;2.33;;;1.10;;
12445;SDS011;6287;50.984;7.022;2023-01-01T02:13:40;2.70;;;1.07;;
12445;SDS011;6287;50.984;7.022;2023-01-01T02:16:11;1.00;;;0.87;;
12445;SDS011;6287;50.984;7.022;2023-01-01T02:24:28;1.53;;;0.90;;
12445;SDS011;6287;50.984;7.022;2023-01-01T02:29:47;2.60;;;1.00;;
12445;SDS011;6287;50.984;7.022;2023-01-01T02:32:20;3.10;;;1.10;;
12445;SDS011;6287;50.984;7.022;2023-01-01T02:34:56;3.37;;;1.20;;
12445;SDS011;6287;50.984;7.022;2023-01-01T02:37:57;2.77;;;1.10;;
12445;SDS011;6287;50.984;7.022;2023-01-01T02:40:37;1.97;;;1.20;;
12445;SDS011;6287;50.984;7.022;2023-01-01T02:43:10;1.20;;;1.10;;
12445;SDS011;6287;50.984;7.022;2023-01-01T02:45:38;1.50;;;1.17;;
12445;SDS011;6287;50.984;7.022;2023-01-01T02:48:05;2.17;;;1.30;;
12445;SDS011;6287;50.984;7.022;2023-01-01T02:50:54;1.00;;;0.87;;
12445;SDS011;6287;50.984;7.022;2023-01-01T02:53:32;0.93;;;0.83;;
12445;SDS011;6287;50.984;7.022;2023-01-01T02:58:51;1.03;;;0.83;;
12445;SDS011;6287;50.984;7.022;2023-01-01T03:01:53;1.40;;;0.83;;
12445;SDS011;6287;50.984;7.022;2023-01-01T03:04:35;1.20;;;0.80;;
12445;SDS011;6287;50.984;7.022;2023-01-01T03:07:12;1.40;;;1.00;;
12445;SDS011;6287;50.984;7.022;2023-01-01T03:15:11;1.03;;;1.03;;
12445;SDS011;6287;50.984;7.022;2023-01-01T03:20:19;2.17;;;0.93;;
12445;SDS011;6287;50.984;7.022;2023-01-01T03:22:48;0.90;;;0.90;;
12445;SDS011;6287;50.984;7.022;2023-01-01T03:25:21;2.60;;;1.07;;
12445;SDS011;6287;50.984;7.022;2023-01-01T03:27:51;1.23;;;0.77;;
12445;SDS011;6287;50.984;7.022;2023-01-01T03:30:24;0.93;;;0.80;;
12445;SDS011;6287;50.984;7.022;2023-01-01T03:32:54;0.80;;;0.80;;
12445;SDS011;6287;50.984;7.022;2023-01-01T03:35:33;1.67;;;1.20;;
12445;SDS011;6287;50.984;7.022;2023-01-01T03:38:03;1.73;;;1.23;;
12445;SDS011;6287;50.984;7.022;2023-01-01T03:40:37;1.70;;;1.37;;
12445;SDS011;6287;50.984;7.022;2023-01-01T03:43:10;3.77;;;1.30;;
12445;SDS011;6287;50.984;7.022;2023-01-01T03:45:44;1.33;;;1.20;;
12445;SDS011;6287;50.984;7.022;2023-01-01T03:48:14;2.33;;;1.30;;
12445;SDS011;6287;50.984;7.022;2023-01-01T03:50:44;3.27;;;1.47;;
12445;SDS011;6287;50.984;7.022;2023-01-01T03:56:16;1.33;;;1.03;;
12445;SDS011;6287;50.984;7.022;2023-01-01T04:01:23;2.00;;;0.90;;
12445;SDS011;6287;50.984;7.022;2023-01-01T04:03:51;2.53;;;0.90;;
12445;SDS011;6287;50.984;7.022;2023-01-01T04:06:20;1.03;;;1.00;;
12445;SDS011;6287;50.984;7.022;2023-01-01T04:08:49;2.97;;;1.00;;
12445;SDS011;6287;50.984;7.022;2023-01-01T04:11:24;1.07;;;0.97;;
12445;SDS011;6287;50.984;7.022;2023-01-01T04:14:11;4.73;;;1.13;;
12445;SDS011;6287;50.984;7.022;2023-01-01T04:16:38;1.57;;;0.90;;
12445;SDS011;6287;50.984;7.022;2023-01-01T04:19:04;2.13;;;0.87;;
12445;SDS011;6287;50.984;7.022;2023-01-01T04:21:35;3.03;;;0.97;;
12445;SDS011;6287;50.984;7.022;2023-01-01T04:24:00;3.23;;;0.80;;
12445;SDS011;6287;50.984;7.022;2023-01-01T04:26:28;2.07;;;0.90;;
12445;SDS011;6287;50.984;7.022;2023-01-01T04:28:54;1.37;;;0.80;;
12445;SDS011;6287;50.984;7.022;2023-01-01T04:31:19;2.00;;;0.70;;
12445;SDS011;6287;50.984;7.022;2023-01-01T04:33:45;1.80;;;0.77;;
12445;SDS011;6287;50.984;7.022;2023-01-01T04:36:10;2.77;;;0.80;;
12445;SDS011;6287;50.984;7.022;2023-01-01T04:38:38;1.37;;;1.00;;
12445;SDS011;6287;50.984;7.022;2023-01-01T04:41:09;1.07;;;0.83;;
12445;SDS011;6287;50.984;7.022;2023-01-01T04:43:34;2.57;;;1.27;;
12445;SDS011;6287;50.984;7.022;2023-01-01T04:46:03;2.00;;;1.10;;
12445;SDS011;6287;50.984;7.022;2023-01-01T04:48:29;2.17;;;1.00;;
12445;SDS011;6287;50.984;7.022;2023-01-01T04:50:56;3.07;;;2.40;;
12445;SDS011;6287;50.984;7.022;2023-01-01T04:53:27;3.17;;;1.03;;
12445;SDS011;6287;50.984;7.022;2023-01-01T04:58:29;2.77;;;1.00;;
12445;SDS011;6287;50.984;7.022;2023-01-01T05:00:56;1.47;;;0.80;;
12445;SDS011;6287;50.984;7.022;2023-01-01T05:03:21;1.00;;;0.70;;
12445;SDS011;6287;50.984;7.022;2023-01-01T05:06:02;0.73;;;0.70;;
12445;SDS011;6287;50.984;7.022;2023-01-01T05:08:33;0.70;;;0.70;;
12445;SDS011;6287;50.984;7.022;2023-01-01T05:11:00;2.63;;;1.00;;
12445;SDS011;6287;50.984;7.022;2023-01-01T05:13:30;1.33;;;0.77;;
12445;SDS011;6287;50.984;7.022;2023-01-01T05:16:04;2.57;;;0.67;;
12445;SDS011;6287;50.984;7.022;2023-01-01T05:18:30;1.93;;;1.00;;
12445;SDS011;6287;50.984;7.022;2023-01-01T05:21:01;2.37;;;0.90;;
12445;SDS011;6287;50.984;7.022;2023-01-01T05:23:28;2.90;;;1.00;;
12445;SDS011;6287;50.984;7.022;2023-01-01T05:25:53;3.07;;;1.00;;
12445;SDS011;6287;50.984;7.022;2023-01-01T05:28:21;0.80;;;0.80;;
12445;SDS011;6287;50.984;7.022;2023-01-01T05:30:50;2.07;;;0.83;;
12445;SDS011;6287;50.984;7.022;2023-01-01T05:33:17;3.47;;;0.80;;
12445;SDS011;6287;50.984;7.022;2023-01-01T05:35:45;1.20;;;0.87;;
12445;SDS011;6287;50.984;7.022;2023-01-01T05:38:19;2.17;;;0.97;;
12445;SDS011;6287;50.984;7.022;2023-01-01T05:40:44;3.27;;;1.13;;
12445;SDS011;6287;50.984;7.022;2023-01-01T05:43:10;2.27;;;0.80;;
12445;SDS011;6287;50.984;7.022;2023-01-01T05:45:35;1.33;;;0.93;;
12445;SDS011;6287;50.984;7.022;2023-01-01T05:48:01;1.67;;;0.93;;
12445;SDS011;6287;50.984;7.022;2023-01-01T05:50:28;2.07;;;1.20;;
12445;SDS011;6287;50.984;7.022;2023-01-01T05:52:58;1.57;;;1.23;;
12445;SDS011;6287;50.984;7.022;2023-01-01T05:55:23;2.13;;;1.70;;
12445;SDS011;6287;50.984;7.022;2023-01-01T05:57:49;2.57;;;1.17;;
12445;SDS011;6287;50.984;7.022;2023-01-01T06:00:17;2.77;;;0.80;;
12445;SDS011;6287;50.984;7.022;2023-01-01T06:02:43;1.50;;;0.90;;
12445;SDS011;6287;50.984;7.022;2023-01-01T06:05:11;1.73;;;1.00;;
12445;SDS011;6287;50.984;7.022;2023-01-01T06:07:36;1.30;;;0.90;;
12445;SDS011;6287;50.984;7.022;2023-01-01T06:10:04;1.30;;;1.03;;
12445;SDS011;6287;50.984;7.022;2023-01-01T06:12:32;2.57;;;0.77;;
12445;SDS011;6287;50.984;7.022;2023-01-01T06:14:58;0.90;;;0.90;;
12445;SDS011;6287;50.984;7.022;2023-01-01T06:17:23;3.03;;;1.07;;
12445;SDS011;6287;50.984;7.022;2023-01-01T06:19:49;1.17;;;1.00;;
12445;SDS011;6287;50.984;7.022;2023-01-01T06:22:19;5.10;;;1.00;;
12445;SDS011;6287;50.984;7.022;2023-01-01T06:24:44;0.80;;;0.80;;
12445;SDS011;6287;50.984;7.022;2023-01-01T06:27:10;1.93;;;1.00;;
12445;SDS011;6287;50.984;7.022;2023-01-01T06:29:36;1.93;;;1.00;;
12445;SDS011;6287;50.984;7.022;2023-01-01T06:32:01;1.93;;;1.20;;
12445;SDS011;6287;50.984;7.022;2023-01-01T06:34:27;2.43;;;0.80;;
12445;SDS011;6287;50.984;7.022;2023-01-01T06:36:52;1.70;;;1.20;;
12445;SDS011;6287;50.984;7.022;2023-01-01T06:39:20;0.97;;;0.80;;
12445;SDS011;6287;50.984;7.022;2023-01-01T06:41:46;1.47;;;1.00;;
12445;SDS011;6287;50.984;7.022;2023-01-01T06:44:13;2.33;;;0.93;;
12445;SDS011;6287;50.984;7.022;2023-01-01T06:46:44;0.97;;;0.90;;
12445;SDS011;6287;50.984;7.022;2023-01-01T06:49:11;0.97;;;0.90;;
12445;SDS011;6287;50.984;7.022;2023-01-01T06:51:41;1.40;;;0.80;;
12445;SDS011;6287;50.984;7.022;2023-01-01T06:54:07;2.23;;;1.07;;
12445;SDS011;6287;50.984;7.022;2023-01-01T06:56:36;1.43;;;0.90;;
12445;SDS011;6287;50.984;7.022;2023-01-01T06:59:03;1.53;;;1.00;;
12445;SDS011;6287;50.984;7.022;2023-01-01T07:01:30;2.97;;;1.03;;
12445;SDS011;6287;50.984;7.022;2023-01-01T07:04:03;1.97;;;1.10;;
12445;SDS011;6287;50.984;7.022;2023-01-01T07:06:32;1.97;;;1.07;;
12445;SDS011;6287;50.984;7.022;2023-01-01T07:08:59;0.90;;;0.90;;
12445;SDS011;6287;50.984;7.022;2023-01-01T07:11:27;2.67;;;1.10;;
12445;SDS011;6287;50.984;7.022;2023-01-01T07:13:56;2.23;;;1.20;;
12445;SDS011;6287;50.984;7.022;2023-01-01T07:16:26;2.73;;;1.00;;
12445;SDS011;6287;50.984;7.022;2023-01-01T07:18:51;4.47;;;1.53;;
12445;SDS011;6287;50.984;7.022;2023-01-01T07:21:36;2.77;;;0.97;;
12445;SDS011;6287;50.984;7.022;2023-01-01T07:24:19;1.23;;;1.10;;
12445;SDS011;6287;50.984;7.022;2023-01-01T07:26:47;2.37;;;0.90;;
12445;SDS011;6287;50.984;7.022;2023-01-01T07:29:17;1.33;;;0.80;;
12445;SDS011;6287;50.984;7.022;2023-01-01T07:31:47;2.37;;;1.07;;
12445;SDS011;6287;50.984;7.022;2023-01-01T07:34:16;1.10;;;0.93;;
12445;SDS011;6287;50.984;7.022;2023-01-01T07:36:47;1.13;;;0.80;;
12445;SDS011;6287;50.984;7.022;2023-01-01T07:39:14;2.83;;;1.10;;
12445;SDS011;6287;50.984;7.022;2023-01-01T07:41:40;1.63;;;1.10;;
12445;SDS011;6287;50.984;7.022;2023-01-01T07:44:08;2.97;;;1.27;;
12445;SDS011;6287;50.984;7.022;2023-01-01T07:46:34;2.60;;;1.00;;
12445;SDS011;6287;50.984;7.022;2023-01-01T07:49:00;2.70;;;1.10;;
12445;SDS011;6287;50.984;7.022;2023-01-01T07:51:26;4.23;;;1.70;;
12445;SDS011;6287;50.984;7.022;2023-01-01T07:53:54;2.97;;;1.00;;
12445;SDS011;6287;50.984;7.022;2023-01-01T07:56:22;3.40;;;1.07;;
12445;SDS011;6287;50.984;7.022;2023-01-01T07:58:47;1.30;;;1.00;;
12445;SDS011;6287;50.984;7.022;2023-01-01T08:01:13;0.80;;;0.80;;
12445;SDS011;6287;50.984;7.022;2023-01-01T08:03:39;1.20;;;1.10;;
12445;SDS011;6287;50.984;7.022;2023-01-01T08:06:13;1.47;;;1.20;;
12445;SDS011;6287;50.984;7.022;2023-01-01T08:08:41;3.40;;;1.13;;
12445;SDS011;6287;50.984;7.022;2023-01-01T08:11:07;2.20;;;1.00;;
12445;SDS011;6287;50.984;7.022;2023-01-01T08:13:33;2.80;;;1.10;;
12445;SDS011;6287;50.984;7.022;2023-01-01T08:16:03;2.33;;;1.30;;
12445;SDS011;6287;50.984;7.022;2023-01-01T08:18:31;0.80;;;0.80;;
12445;SDS011;6287;50.984;7.022;2023-01-01T08:20:59;1.80;;;1.17;;
12445;SDS011;6287;50.984;7.022;2023-01-01T08:23:25;1.40;;;0.90;;
12445;SDS011;6287;50.984;7.022;2023-01-01T08:25:53;1.40;;;0.83;;
12445;SDS011;6287;50.984;7.022;2023-01-01T08:28:24;5.67;;;1.37;;
12445;SDS011;6287;50.984;7.022;2023-01-01T08:30:49;3.33;;;1.20;;
12445;SDS011;6287;50.984;7.022;2023-01-01T08:33:17;1.90;;;1.03;;
12445;SDS011;6287;50.984;7.022;2023-01-01T08:35:47;1.07;;;0.90;;
12445;SDS011;6287;50.984;7.022;2023-01-01T08:38:13;1.93;;;1.10;;
12445;SDS011;6287;50.984;7.022;2023-01-01T08:40:38;2.80;;;1.10;;
12445;SDS011;6287;50.984;7.022;2023-01-01T08:43:06;0.97;;;0.97;;
12445;SDS011;6287;50.984;7.022;2023-01-01T08:45:34;3.10;;;1.13;;
12445;SDS011;6287;50.984;7.022;2023-01-01T08:48:02;1.27;;;0.93;;
12445;SDS011;6287;50.984;7.022;2023-01-01T08:50:28;2.07;;;0.97;;
12445;SDS011;6287;50.984;7.022;2023-01-01T08:52:58;3.13;;;1.37;;
12445;SDS011;6287;50.984;7.022;2023-01-01T08:55:24;1.27;;;0.90;;
12445;SDS011;6287;50.984;7.022;2023-01-01T08:57:50;1.87;;;1.03;;
12445;SDS011;6287;50.984;7.022;2023-01-01T09:00:18;3.03;;;1.00;;
12445;SDS011;6287;50.984;7.022;2023-01-01T09:02:43;1.30;;;1.17;;
12445;SDS011;6287;50.984;7.022;2023-01-01T09:05:11;3.77;;;0.83;;
12445;SDS011;6287;50.984;7.022;2023-01-01T09:07:37;0.80;;;0.70;;
12445;SDS011;6287;50.984;7.022;2023-01-01T09:10:05;1.50;;;0.80;;
12445;SDS011;6287;50.984;7.022;2023-01-01T09:12:33;3.23;;;1.10;;
12445;SDS011;6287;50.984;7.022;2023-01-01T09:14:59;1.83;;;0.87;;
12445;SDS011;6287;50.984;7.022;2023-01-01T09:17:24;0.80;;;0.80;;
12445;SDS011;6287;50.984;7.022;2023-01-01T09:19:50;1.37;;;0.87;;
12445;SDS011;6287;50.984;7.022;2023-01-01T09:22:20;0.70;;;0.70;;
12445;SDS011;6287;50.984;7.022;2023-01-01T09:24:46;6.87;;;1.10;;
12445;SDS011;6287;50.984;7.022;2023-01-01T09:27:12;2.03;;;1.13;;
12445;SDS011;6287;50.984;7.022;2023-01-01T09:29:37;1.17;;;0.83;;
12445;SDS011;6287;50.984;7.022;2023-01-01T09:32:03;1.30;;;1.07;;
12445;SDS011;6287;50.984;7.022;2023-01-01T09:34:28;1.63;;;1.10;;
12445;SDS011;6287;50.984;7.022;2023-01-01T09:36:54;3.00;;;0.80;;
12445;SDS011;6287;50.984;7.022;2023-01-01T09:39:22;3.33;;;0.90;;
12445;SDS011;6287;50.984;7.022;2023-01-01T09:47:36;1.17;;;0.90;;
12445;SDS011;6287;50.984;7.022;2023-01-01T09:50:18;1.77;;;1.30;;
12445;SDS011;6287;50.984;7.022;2023-01-01T09:55:17;2.80;;;1.00;;
12445;SDS011;6287;50.984;7.022;2023-01-01T09:57:52;3.60;;;1.10;;
12445;SDS011;6287;50.984;7.022;2023-01-01T10:00:19;1.47;;;1.30;;
12445;SDS011;6287;50.984;7.022;2023-01-01T10:10:39;2.20;;;0.97;;
12445;SDS011;6287;50.984;7.022;2023-01-01T10:18:25;3.07;;;0.90;;
12445;SDS011;6287;50.984;7.022;2023-01-01T10:24:02;1.10;;;0.80;;
12445;SDS011;6287;50.984;7.022;2023-01-01T10:26:37;2.33;;;1.10;;
12445;SDS011;6287;50.984;7.022;2023-01-01T10:29:05;1.83;;;0.80;;
12445;SDS011;6287;50.984;7.022;2023-01-01T10:31:40;3.77;;;1.10;;
12445;SDS011;6287;50.984;7.022;2023-01-01T10:34:22;2.07;;;0.90;;
12445;SDS011;6287;50.984;7.022;2023-01-01T10:36:55;1.60;;;0.77;;
12445;SDS011;6287;50.984;7.022;2023-01-01T10:39:25;3.60;;;0.80;;
12445;SDS011;6287;50.984;7.022;2023-01-01T10:41:52;1.40;;;0.87;;
12445;SDS011;6287;50.984;7.022;2023-01-01T10:44:21;1.97;;;1.00;;
12445;SDS011;6287;50.984;7.022;2023-01-01T10:46:56;3.27;;;0.90;;
12445;SDS011;6287;50.984;7.022;2023-01-01T10:49:22;2.53;;;0.97;;
12445;SDS011;6287;50.984;7.022;2023-01-01T10:51:51;1.93;;;0.93;;
12445;SDS011;6287;50.984;7.022;2023-01-01T10:56:46;3.10;;;1.10;;
12445;SDS011;6287;50.984;7.022;2023-01-01T10:59:31;1.60;;;0.93;;
12445;SDS011;6287;50.984;7.022;2023-01-01T11:04:48;1.83;;;0.90;;
12445;SDS011;6287;50.984;7.022;2023-01-01T11:07:34;1.10;;;1.00;;
12445;SDS011;6287;50.984;7.022;2023-01-01T11:10:01;2.77;;;0.97;;
12445;SDS011;6287;50.984;7.022;2023-01-01T11:12:29;1.30;;;1.03;;
12445;SDS011;6287;50.984;7.022;2023-01-01T11:14:59;2.03;;;1.00;;
12445;SDS011;6287;50.984;7.022;2023-01-01T11:17:28;2.40;;;1.03;;
12445;SDS011;6287;50.984;7.022;2023-01-01T11:20:02;2.43;;;1.00;;
12445;SDS011;6287;50.984;7.022;2023-01-01T11:22:34;1.20;;;0.80;;
12445;SDS011;6287;50.984;7.022;2023-01-01T11:25:29;1.50;;;0.90;;
12445;SDS011;6287;50.984;7.022;2023-01-01T11:30:40;2.20;;;1.20;;
12445;SDS011;6287;50.984;7.022;2023-01-01T11:33:23;1.83;;;1.10;;
12445;SDS011;6287;50.984;7.022;2023-01-01T11:36:01;2.13;;;1.10;;
12445;SDS011;6287;50.984;7.022;2023-01-01T11:38:31;1.87;;;1.30;;
12445;SDS011;6287;50.984;7.022;2023-01-01T11:41:05;4.20;;;1.07;;
12445;SDS011;6287;50.984;7.022;2023-01-01T11:43:36;1.73;;;0.80;;
12445;SDS011;6287;50.984;7.022;2023-01-01T11:46:09;5.37;;;1.00;;
12445;SDS011;6287;50.984;7.022;2023-01-01T11:48:42;1.13;;;0.80;;
12445;SDS011;6287;50.984;7.022;2023-01-01T11:51:08;2.30;;;0.77;;
12445;SDS011;6287;50.984;7.022;2023-01-01T11:53:39;2.93;;;1.10;;
12445;SDS011;6287;50.984;7.022;2023-01-01T11:56:15;2.67;;;0.90;;
12445;SDS011;6287;50.984;7.022;2023-01-01T11:58:49;2.20;;;1.00;;
12445;SDS011;6287;50.984;7.022;2023-01-01T12:05:07;2.20;;;1.00;;
12445;SDS011;6287;50.984;7.022;2023-01-01T12:12:36;2.13;;;0.90;;
12445;SDS011;6287;50.984;7.022;2023-01-01T12:15:26;2.70;;;1.00;;
12445;SDS011;6287;50.984;7.022;2023-01-01T12:23:49;2.07;;;1.07;;
12445;SDS011;6287;50.984;7.022;2023-01-01T12:26:19;2.53;;;1.00;;
12445;SDS011;6287;50.984;7.022;2023-01-01T12:34:19;2.40;;;1.13;;
12445;SDS011;6287;50.984;7.022;2023-01-01T12:40:05;3.20;;;1.37;;
12445;SDS011;6287;50.984;7.022;2023-01-01T12:48:36;1.17;;;1.07;;
12445;SDS011;6287;50.984;7.022;2023-01-01T12:59:53;1.30;;;1.10;;
12445;SDS011;6287;50.984;7.022;2023-01-01T13:02:22;2.23;;;1.30;;
12445;SDS011;6287;50.984;7.022;2023-01-01T13:04:56;3.33;;;1.33;;
12445;SDS011;6287;50.984;7.022;2023-01-01T13:07:40;1.57;;;1.27;;
12445;SDS011;6287;50.984;7.022;2023-01-01T13:12:52;2.80;;;1.30;;
12445;SDS011;6287;50.984;7.022;2023-01-01T13:20:43;2.23;;;1.27;;
12445;SDS011;6287;50.984;7.022;2023-01-01T13:42:39;2.40;;;1.20;;
12445;SDS011;6287;50.984;7.022;2023-01-01T13:55:50;1.20;;;1.10;;
12445;SDS011;6287;50.984;7.022;2023-01-01T13:58:48;4.20;;;1.40;;
12445;SDS011;6287;50.984;7.022;2023-01-01T14:04:06;3.73;;;1.43;;
12445;SDS011;6287;50.984;7.022;2023-01-01T14:06:45;2.67;;;1.50;;
12445;SDS011;6287;50.984;7.022;2023-01-01T14:09:15;1.97;;;1.10;;
12445;SDS011;6287;50.984;7.022;2023-01-01T14:11:46;1.50;;;1.20;;
12445;SDS011;6287;50.984;7.022;2023-01-01T14:16:48;1.70;;;1.07;;
12445;SDS011;6287;50.984;7.022;2023-01-01T14:19:29;1.63;;;1.40;;
12445;SDS011;6287;50.984;7.022;2023-01-01T14:21:58;3.43;;;1.07;;
12445;SDS011;6287;50.984;7.022;2023-01-01T14:24:27;2.47;;;1.00;;
12445;SDS011;6287;50.984;7.022;2023-01-01T14:26:55;2.47;;;1.00;;
12445;SDS011;6287;50.984;7.022;2023-01-01T14:29:25;1.20;;;0.90;;
12445;SDS011;6287;50.984;7.022;2023-01-01T14:31:54;1.43;;;1.10;;
12445;SDS011;6287;50.984;7.022;2023-01-01T14:34:30;2.33;;;1.00;;
12445;SDS011;6287;50.984;7.022;2023-01-01T14:37:02;3.00;;;1.07;;
12445;SDS011;6287;50.984;7.022;2023-01-01T14:39:30;3.07;;;0.70;;
12445;SDS011;6287;50.984;7.022;2023-01-01T14:42:00;2.50;;;1.00;;
12445;SDS011;6287;50.984;7.022;2023-01-01T14:44:38;3.00;;;0.90;;
12445;SDS011;6287;50.984;7.022;2023-01-01T14:47:24;1.83;;;1.03;;
12445;SDS011;6287;50.984;7.022;2023-01-01T14:49:56;1.47;;;0.90;;
12445;SDS011;6287;50.984;7.022;2023-01-01T14:52:30;1.67;;;0.90;;
12445;SDS011;6287;50.984;7.022;2023-01-01T14:55:00;2.27;;;1.23;;
12445;SDS011;6287;50.984;7.022;2023-01-01T14:57:30;2.20;;;0.90;;
12445;SDS011;6287;50.984;7.022;2023-01-01T14:59:58;2.77;;;1.10;;
12445;SDS011;6287;50.984;7.022;2023-01-01T15:02:26;1.63;;;0.80;;
12445;SDS011;6287;50.984;7.022;2023-01-01T15:04:55;1.10;;;1.00;;
12445;SDS011;6287;50.984;7.022;2023-01-01T15:07:28;0.90;;;0.90;;
12445;SDS011;6287;50.984;7.022;2023-01-01T15:09:57;2.80;;;1.13;;
12445;SDS011;6287;50.984;7.022;2023-01-01T15:12:25;1.63;;;1.20;;
12445;SDS011;6287;50.984;7.022;2023-01-01T15:14:53;1.87;;;1.20;;
12445;SDS011;6287;50.984;7.022;2023-01-01T15:17:23;1.87;;;0.90;;
12445;SDS011;6287;50.984;7.022;2023-01-01T15:20:05;2.83;;;1.13;;
12445;SDS011;6287;50.984;7.022;2023-01-01T15:22:44;2.07;;;1.20;;
12445;SDS011;6287;50.984;7.022;2023-01-01T15:25:13;3.93;;;1.40;;
12445;SDS011;6287;50.984;7.022;2023-01-01T15:27:46;3.20;;;2.17;;
12445;SDS011;6287;50.984;7.022;2023-01-01T15:30:22;5.03;;;2.30;;
12445;SDS011;6287;50.984;7.022;2023-01-01T15:32:50;1.93;;;1.20;;
12445;SDS011;6287;50.984;7.022;2023-01-01T15:37:48;2.17;;;1.57;;
12445;SDS011;6287;50.984;7.022;2023-01-01T15:45:29;3.63;;;2.13;;
12445;SDS011;6287;50.984;7.022;2023-01-01T15:53:19;4.57;;;1.70;;
12445;SDS011;6287;50.984;7.022;2023-01-01T15:55:52;2.90;;;1.27;;
12445;SDS011;6287;50.984;7.022;2023-01-01T15:58:22;1.50;;;1.40;;
12445;SDS011;6287;50.984;7.022;2023-01-01T16:01:11;2.13;;;1.27;;
12445;SDS011;6287;50.984;7.022;2023-01-01T16:03:38;2.77;;;1.00;;
12445;SDS011;6287;50.984;7.022;2023-01-01T16:06:10;2.07;;;1.03;;
12445;SDS011;6287;50.984;7.022;2023-01-01T16:08:42;4.97;;;1.80;;
12445;SDS011;6287;50.984;7.022;2023-01-01T16:11:08;3.00;;;2.23;;
12445;SDS011;6287;50.984;7.022;2023-01-01T16:13:38;2.37;;;1.70;;
12445;SDS011;6287;50.984;7.022;2023-01-01T16:16:04;2.17;;;1.60;;
12445;SDS011;6287;50.984;7.022;2023-01-01T16:19:04;2.63;;;1.73;;
12445;SDS011;6287;50.984;7.022;2023-01-01T16:21:31;2.53;;;1.57;;
12445;SDS011;6287;50.984;7.022;2023-01-01T16:23:59;3.33;;;1.73;;
12445;SDS011;6287;50.984;7.022;2023-01-01T16:26:30;2.30;;;1.80;;
12445;SDS011;6287;50.984;7.022;2023-01-01T16:28:56;2.13;;;1.50;;
12445;SDS011;6287;50.984;7.022;2023-01-01T16:31:24;4.53;;;1.80;;
12445;SDS011;6287;50.984;7.022;2023-01-01T16:33:53;4.53;;;1.87;;
12445;SDS011;6287;50.984;7.022;2023-01-01T16:36:20;3.97;;;2.73;;
12445;SDS011;6287;50.984;7.022;2023-01-01T16:38:49;3.77;;;2.43;;
12445;SDS011;6287;50.984;7.022;2023-01-01T16:41:16;4.77;;;2.63;;
12445;SDS011;6287;50.984;7.022;2023-01-01T16:43:43;5.10;;;2.93;;
12445;SDS011;6287;50.984;7.022;2023-01-01T16:46:10;4.23;;;2.90;;
12445;SDS011;6287;50.984;7.022;2023-01-01T16:48:36;4.10;;;2.70;;
12445;SDS011;6287;50.984;7.022;2023-01-01T16:51:02;3.63;;;3.00;;
12445;SDS011;6287;50.984;7.022;2023-01-01T16:53:31;4.37;;;2.60;;
12445;SDS011;6287;50.984;7.022;2023-01-01T16:55:57;3.07;;;2.77;;
12445;SDS011;6287;50.984;7.022;2023-01-01T16:58:25;4.50;;;3.40;;
12445;SDS011;6287;50.984;7.022;2023-01-01T17:00:57;4.63;;;2.90;;
12445;SDS011;6287;50.984;7.022;2023-01-01T17:03:27;6.53;;;2.60;;
12445;SDS011;6287;50.984;7.022;2023-01-01T17:05:55;6.27;;;3.37;;
12445;SDS011;6287;50.984;7.022;2023-01-01T17:08:20;3.43;;;3.10;;
12445;SDS011;6287;50.984;7.022;2023-01-01T17:10:48;5.20;;;4.00;;
12445;SDS011;6287;50.984;7.022;2023-01-01T17:13:16;7.47;;;4.57;;
12445;SDS011;6287;50.984;7.022;2023-01-01T17:15:42;8.73;;;5.47;;
12445;SDS011;6287;50.984;7.022;2023-01-01T17:18:07;17.80;;;11.63;;
12445;SDS011;6287;50.984;7.022;2023-01-01T17:20:34;8.33;;;4.40;;
12445;SDS011;6287;50.984;7.022;2023-01-01T17:23:02;5.90;;;4.03;;
12445;SDS011;6287;50.984;7.022;2023-01-01T17:25:28;5.43;;;3.80;;
12445;SDS011;6287;50.984;7.022;2023-01-01T17:27:58;6.77;;;3.47;;
12445;SDS011;6287;50.984;7.022;2023-01-01T17:30:26;5.97;;;3.30;;
12445;SDS011;6287;50.984;7.022;2023-01-01T17:32:52;7.17;;;4.03;;
12445;SDS011;6287;50.984;7.022;2023-01-01T17:35:20;6.73;;;3.90;;
12445;SDS011;6287;50.984;7.022;2023-01-01T17:37:50;6.63;;;4.00;;
12445;SDS011;6287;50.984;7.022;2023-01-01T17:40:18;5.63;;;3.43;;
12445;SDS011;6287;50.984;7.022;2023-01-01T17:42:44;5.10;;;3.30;;
12445;SDS011;6287;50.984;7.022;2023-01-01T17:45:09;8.40;;;3.80;;
12445;SDS011;6287;50.984;7.022;2023-01-01T17:47:35;4.57;;;3.17;;
12445;SDS011;6287;50.984;7.022;2023-01-01T17:50:03;5.63;;;3.63;;
12445;SDS011;6287;50.984;7.022;2023-01-01T17:52:32;5.80;;;3.40;;
12445;SDS011;6287;50.984;7.022;2023-01-01T17:55:00;5.43;;;3.37;;
12445;SDS011;6287;50.984;7.022;2023-01-01T17:57:25;4.83;;;3.10;;